Hovedside
METAR-TAF:

METAR-TAF

Lufthavner :

Fua'amotu internasjonale lufthavn

Tongatapu, Tonga

breddegrad: 21-14S, lengdegrad: 175-09W, høyde over havet: 38 m

Gjeldene værobservasjon

Denne rapporten ble laget for 38 minutter siden, klokken 01:00 UTC
Vind 7 kt fra Sørøst
Temperatur 30°C
Luftfuktighet 79%
Trykk 1010 hPa
Sikt 10 km eller mer
Få skyer i en høyde av 1800 ft, Tårnskyer (cumulus).

METAR: NFTF 290100Z 13007KT 9999 FEW018TCU 30/26 Q1010

Tid: 14:38 (01:38 UTC)

Varsel

Denne rapporten ble laget for 2 timer og 31 minutter siden, klokken 23:07 UTC
Varsel gyldig fra 29. klokken 00 UTC til 29. klokken 24 UTC
Vind 7 kt fra Øst-sørøst
Sikt 10 km eller mer
Få skyer i en høyde av 1600 ft
Sannsynlighet 40% :
Midlertidig
fra 29. klokken 06 UTC til 29. klokken 24 UTC
Sikt: 5000 m
Brutte skyer i en høyde av 1500 ft
regnbyger

TAF: NFTF 282307Z 2900/2924 12007KT 9999 FEW016 PROB40 TEMPO 2906/2924 5000 SHRA BKN015

Værobservasjoner og værvarsel for over 4000 flyplasser (METAR- og TAF-rapporter).

Tilgjengelige stasjoner er representert av de røde og gule prikkene på kartet.

Hold musepekeren over prikken for å se navnet på stasjonen.

Klikk så for å se værobservasjoner og -varsler.

For å forandre kartet kan du klikke på den grønne knappen med svart kryss for å zoome inn, på den grønne knappen med strek for å zoome ut, eller på de grønne pilene for å se tilstøtende kart.


METAR-TAF: